sensor_id;sensor_type;location;lat;lon;timestamp;P1;durP1;ratioP1;P2;durP2;ratioP2
789;SDS011;378;48.844;9.156;2023-11-21T00:00:34;8.13;;;1.45;;
789;SDS011;378;48.844;9.156;2023-11-21T00:03:01;8.68;;;1.27;;
789;SDS011;378;48.844;9.156;2023-11-21T00:05:32;9.18;;;1.80;;
789;SDS011;378;48.844;9.156;2023-11-21T00:08:02;4.30;;;1.38;;
789;SDS011;378;48.844;9.156;2023-11-21T00:10:30;7.13;;;1.40;;
789;SDS011;378;48.844;9.156;2023-11-21T00:12:58;4.93;;;1.20;;
789;SDS011;378;48.844;9.156;2023-11-21T00:15:27;6.18;;;1.48;;
789;SDS011;378;48.844;9.156;2023-11-21T00:17:54;4.15;;;1.15;;
789;SDS011;378;48.844;9.156;2023-11-21T00:20:20;3.20;;;1.38;;
789;SDS011;378;48.844;9.156;2023-11-21T00:22:50;8.35;;;1.60;;
789;SDS011;378;48.844;9.156;2023-11-21T00:25:17;5.00;;;1.15;;
789;SDS011;378;48.844;9.156;2023-11-21T00:27:47;7.05;;;1.20;;
789;SDS011;378;48.844;9.156;2023-11-21T00:30:15;5.30;;;1.23;;
789;SDS011;378;48.844;9.156;2023-11-21T00:32:42;6.80;;;1.20;;
789;SDS011;378;48.844;9.156;2023-11-21T00:35:10;3.35;;;1.17;;
789;SDS011;378;48.844;9.156;2023-11-21T00:37:37;2.13;;;1.00;;
789;SDS011;378;48.844;9.156;2023-11-21T00:40:05;5.65;;;1.20;;
789;SDS011;378;48.844;9.156;2023-11-21T00:42:32;5.35;;;1.20;;
789;SDS011;378;48.844;9.156;2023-11-21T00:44:59;3.38;;;1.40;;
789;SDS011;378;48.844;9.156;2023-11-21T00:47:27;2.65;;;1.10;;
789;SDS011;378;48.844;9.156;2023-11-21T00:49:54;4.90;;;1.08;;
789;SDS011;378;48.844;9.156;2023-11-21T00:52:22;6.38;;;1.33;;
789;SDS011;378;48.844;9.156;2023-11-21T00:54:48;9.95;;;1.75;;
789;SDS011;378;48.844;9.156;2023-11-21T00:57:15;3.38;;;1.30;;
789;SDS011;378;48.844;9.156;2023-11-21T00:59:42;3.42;;;1.30;;
789;SDS011;378;48.844;9.156;2023-11-21T01:02:09;3.63;;;1.23;;
789;SDS011;378;48.844;9.156;2023-11-21T01:04:37;6.18;;;1.50;;
789;SDS011;378;48.844;9.156;2023-11-21T01:07:04;3.45;;;1.23;;
789;SDS011;378;48.844;9.156;2023-11-21T01:09:31;8.00;;;1.33;;
789;SDS011;378;48.844;9.156;2023-11-21T01:11:58;8.05;;;1.40;;
789;SDS011;378;48.844;9.156;2023-11-21T01:14:25;8.43;;;1.90;;
789;SDS011;378;48.844;9.156;2023-11-21T01:16:53;11.63;;;1.45;;
789;SDS011;378;48.844;9.156;2023-11-21T01:19:20;8.57;;;1.52;;
789;SDS011;378;48.844;9.156;2023-11-21T01:21:48;8.80;;;1.40;;
789;SDS011;378;48.844;9.156;2023-11-21T01:24:17;8.23;;;1.30;;
789;SDS011;378;48.844;9.156;2023-11-21T01:26:44;5.72;;;1.52;;
789;SDS011;378;48.844;9.156;2023-11-21T01:29:11;7.80;;;1.38;;
789;SDS011;378;48.844;9.156;2023-11-21T01:31:38;10.60;;;1.63;;
789;SDS011;378;48.844;9.156;2023-11-21T01:34:05;6.50;;;1.60;;
789;SDS011;378;48.844;9.156;2023-11-21T01:36:32;4.20;;;1.50;;
789;SDS011;378;48.844;9.156;2023-11-21T01:39:00;9.13;;;1.40;;
789;SDS011;378;48.844;9.156;2023-11-21T01:41:27;5.88;;;1.45;;
789;SDS011;378;48.844;9.156;2023-11-21T01:43:54;8.70;;;1.70;;
789;SDS011;378;48.844;9.156;2023-11-21T01:46:21;9.98;;;1.30;;
789;SDS011;378;48.844;9.156;2023-11-21T01:48:48;1.42;;;1.10;;
789;SDS011;378;48.844;9.156;2023-11-21T01:51:16;6.70;;;1.60;;
789;SDS011;378;48.844;9.156;2023-11-21T01:53:44;4.47;;;1.30;;
789;SDS011;378;48.844;9.156;2023-11-21T01:56:13;6.70;;;1.40;;
789;SDS011;378;48.844;9.156;2023-11-21T01:58:40;4.22;;;1.27;;
789;SDS011;378;48.844;9.156;2023-11-21T02:01:08;9.25;;;1.30;;
789;SDS011;378;48.844;9.156;2023-11-21T02:03:35;3.88;;;1.35;;
789;SDS011;378;48.844;9.156;2023-11-21T02:06:02;4.55;;;1.17;;
789;SDS011;378;48.844;9.156;2023-11-21T02:08:32;7.78;;;1.20;;
789;SDS011;378;48.844;9.156;2023-11-21T02:10:59;5.95;;;1.27;;
789;SDS011;378;48.844;9.156;2023-11-21T02:13:28;6.47;;;1.40;;
789;SDS011;378;48.844;9.156;2023-11-21T02:15:56;7.07;;;1.50;;
789;SDS011;378;48.844;9.156;2023-11-21T02:18:23;3.60;;;1.10;;
789;SDS011;378;48.844;9.156;2023-11-21T02:20:50;8.90;;;1.55;;
789;SDS011;378;48.844;9.156;2023-11-21T02:23:18;3.80;;;1.20;;
789;SDS011;378;48.844;9.156;2023-11-21T02:25:45;6.47;;;1.17;;
789;SDS011;378;48.844;9.156;2023-11-21T02:28:12;3.85;;;1.30;;
789;SDS011;378;48.844;9.156;2023-11-21T02:30:40;7.20;;;2.15;;
789;SDS011;378;48.844;9.156;2023-11-21T02:33:07;12.57;;;1.20;;
789;SDS011;378;48.844;9.156;2023-11-21T02:35:34;3.90;;;1.10;;
789;SDS011;378;48.844;9.156;2023-11-21T02:38:01;2.83;;;1.30;;
789;SDS011;378;48.844;9.156;2023-11-21T02:40:29;4.65;;;1.02;;
789;SDS011;378;48.844;9.156;2023-11-21T02:42:56;5.90;;;1.40;;
789;SDS011;378;48.844;9.156;2023-11-21T02:45:24;3.38;;;0.90;;
789;SDS011;378;48.844;9.156;2023-11-21T02:47:51;3.05;;;1.00;;
789;SDS011;378;48.844;9.156;2023-11-21T02:50:22;4.32;;;0.85;;
789;SDS011;378;48.844;9.156;2023-11-21T02:52:48;4.85;;;1.35;;
789;SDS011;378;48.844;9.156;2023-11-21T02:55:16;4.32;;;0.82;;
789;SDS011;378;48.844;9.156;2023-11-21T02:57:44;0.90;;;0.82;;
789;SDS011;378;48.844;9.156;2023-11-21T03:00:11;2.70;;;0.90;;
789;SDS011;378;48.844;9.156;2023-11-21T03:02:40;1.92;;;0.88;;
789;SDS011;378;48.844;9.156;2023-11-21T03:05:07;5.07;;;0.93;;
789;SDS011;378;48.844;9.156;2023-11-21T03:07:35;2.15;;;1.05;;
789;SDS011;378;48.844;9.156;2023-11-21T03:10:02;2.42;;;0.88;;
789;SDS011;378;48.844;9.156;2023-11-21T03:12:30;4.15;;;1.00;;
789;SDS011;378;48.844;9.156;2023-11-21T03:14:58;2.88;;;0.80;;
789;SDS011;378;48.844;9.156;2023-11-21T03:17:26;6.53;;;0.93;;
789;SDS011;378;48.844;9.156;2023-11-21T03:19:54;6.03;;;1.10;;
789;SDS011;378;48.844;9.156;2023-11-21T03:22:22;6.03;;;1.20;;
789;SDS011;378;48.844;9.156;2023-11-21T03:24:49;4.63;;;1.15;;
789;SDS011;378;48.844;9.156;2023-11-21T03:27:15;2.67;;;0.90;;
789;SDS011;378;48.844;9.156;2023-11-21T03:29:42;4.75;;;0.80;;
789;SDS011;378;48.844;9.156;2023-11-21T03:32:10;4.22;;;1.10;;
789;SDS011;378;48.844;9.156;2023-11-21T03:34:42;3.28;;;0.93;;
789;SDS011;378;48.844;9.156;2023-11-21T03:37:19;2.13;;;1.27;;
789;SDS011;378;48.844;9.156;2023-11-21T03:39:46;6.95;;;0.90;;
789;SDS011;378;48.844;9.156;2023-11-21T03:42:13;2.95;;;0.80;;
789;SDS011;378;48.844;9.156;2023-11-21T03:44:40;5.65;;;1.20;;
789;SDS011;378;48.844;9.156;2023-11-21T03:47:07;2.90;;;0.90;;
789;SDS011;378;48.844;9.156;2023-11-21T03:49:35;2.65;;;0.93;;
789;SDS011;378;48.844;9.156;2023-11-21T03:52:02;1.67;;;0.80;;
789;SDS011;378;48.844;9.156;2023-11-21T03:54:29;1.05;;;0.80;;
789;SDS011;378;48.844;9.156;2023-11-21T03:56:56;3.70;;;1.10;;
789;SDS011;378;48.844;9.156;2023-11-21T03:59:22;1.90;;;0.93;;
789;SDS011;378;48.844;9.156;2023-11-21T04:01:52;5.05;;;0.90;;
789;SDS011;378;48.844;9.156;2023-11-21T04:04:21;1.77;;;0.80;;
789;SDS011;378;48.844;9.156;2023-11-21T04:06:49;5.97;;;1.13;;
789;SDS011;378;48.844;9.156;2023-11-21T04:09:17;4.88;;;0.90;;
789;SDS011;378;48.844;9.156;2023-11-21T04:11:43;3.42;;;0.90;;
789;SDS011;378;48.844;9.156;2023-11-21T04:14:11;5.32;;;1.00;;
789;SDS011;378;48.844;9.156;2023-11-21T04:16:38;4.10;;;1.10;;
789;SDS011;378;48.844;9.156;2023-11-21T04:19:04;1.42;;;0.70;;
789;SDS011;378;48.844;9.156;2023-11-21T04:21:31;2.97;;;0.90;;
789;SDS011;378;48.844;9.156;2023-11-21T04:23:59;1.95;;;1.00;;
789;SDS011;378;48.844;9.156;2023-11-21T04:26:26;4.07;;;1.10;;
789;SDS011;378;48.844;9.156;2023-11-21T04:28:53;3.95;;;0.93;;
789;SDS011;378;48.844;9.156;2023-11-21T04:31:20;3.20;;;0.93;;
789;SDS011;378;48.844;9.156;2023-11-21T04:33:47;3.35;;;0.90;;
789;SDS011;378;48.844;9.156;2023-11-21T04:36:14;4.07;;;0.98;;
789;SDS011;378;48.844;9.156;2023-11-21T04:38:40;2.22;;;0.90;;
789;SDS011;378;48.844;9.156;2023-11-21T04:41:09;3.28;;;0.93;;
789;SDS011;378;48.844;9.156;2023-11-21T04:43:37;5.13;;;1.10;;
789;SDS011;378;48.844;9.156;2023-11-21T04:46:04;3.85;;;0.95;;
789;SDS011;378;48.844;9.156;2023-11-21T04:48:31;3.00;;;1.23;;
789;SDS011;378;48.844;9.156;2023-11-21T04:50:58;3.42;;;1.30;;
789;SDS011;378;48.844;9.156;2023-11-21T04:53:25;4.40;;;1.40;;
789;SDS011;378;48.844;9.156;2023-11-21T04:55:52;1.80;;;1.08;;
789;SDS011;378;48.844;9.156;2023-11-21T04:58:20;3.05;;;1.13;;
789;SDS011;378;48.844;9.156;2023-11-21T05:00:47;2.03;;;1.08;;
789;SDS011;378;48.844;9.156;2023-11-21T05:03:14;3.38;;;1.30;;
789;SDS011;378;48.844;9.156;2023-11-21T05:05:41;2.83;;;1.10;;
789;SDS011;378;48.844;9.156;2023-11-21T05:08:08;3.28;;;1.00;;
789;SDS011;378;48.844;9.156;2023-11-21T05:10:35;7.28;;;1.27;;
789;SDS011;378;48.844;9.156;2023-11-21T05:13:03;4.72;;;1.27;;
789;SDS011;378;48.844;9.156;2023-11-21T05:15:34;3.33;;;1.00;;
789;SDS011;378;48.844;9.156;2023-11-21T05:18:01;2.28;;;0.88;;
789;SDS011;378;48.844;9.156;2023-11-21T05:20:28;2.50;;;0.88;;
789;SDS011;378;48.844;9.156;2023-11-21T05:22:55;3.97;;;1.10;;
789;SDS011;378;48.844;9.156;2023-11-21T05:25:22;8.30;;;1.27;;
789;SDS011;378;48.844;9.156;2023-11-21T05:27:48;2.47;;;1.00;;
789;SDS011;378;48.844;9.156;2023-11-21T05:30:15;3.70;;;0.95;;
789;SDS011;378;48.844;9.156;2023-11-21T05:32:44;2.63;;;1.30;;
789;SDS011;378;48.844;9.156;2023-11-21T05:35:11;2.28;;;1.17;;
789;SDS011;378;48.844;9.156;2023-11-21T05:37:40;2.53;;;1.15;;
789;SDS011;378;48.844;9.156;2023-11-21T05:40:07;2.70;;;1.20;;
789;SDS011;378;48.844;9.156;2023-11-21T05:42:35;2.10;;;1.02;;
789;SDS011;378;48.844;9.156;2023-11-21T05:45:03;2.28;;;1.20;;
789;SDS011;378;48.844;9.156;2023-11-21T05:47:35;4.13;;;1.00;;
789;SDS011;378;48.844;9.156;2023-11-21T05:50:07;2.20;;;1.00;;
789;SDS011;378;48.844;9.156;2023-11-21T05:52:39;5.80;;;1.30;;
789;SDS011;378;48.844;9.156;2023-11-21T05:55:07;2.67;;;1.00;;
789;SDS011;378;48.844;9.156;2023-11-21T05:57:35;5.13;;;1.35;;
789;SDS011;378;48.844;9.156;2023-11-21T06:00:03;4.47;;;1.38;;
789;SDS011;378;48.844;9.156;2023-11-21T06:02:36;2.78;;;1.27;;
789;SDS011;378;48.844;9.156;2023-11-21T06:05:06;4.18;;;1.13;;
789;SDS011;378;48.844;9.156;2023-11-21T06:07:34;2.22;;;1.10;;
789;SDS011;378;48.844;9.156;2023-11-21T06:10:01;1.85;;;0.95;;
789;SDS011;378;48.844;9.156;2023-11-21T06:12:31;1.98;;;1.40;;
789;SDS011;378;48.844;9.156;2023-11-21T06:15:00;3.15;;;1.20;;
789;SDS011;378;48.844;9.156;2023-11-21T06:17:29;3.15;;;1.13;;
789;SDS011;378;48.844;9.156;2023-11-21T06:19:56;1.88;;;1.02;;
789;SDS011;378;48.844;9.156;2023-11-21T06:22:24;2.65;;;1.40;;
789;SDS011;378;48.844;9.156;2023-11-21T06:24:51;6.43;;;1.38;;
789;SDS011;378;48.844;9.156;2023-11-21T06:27:17;2.13;;;1.40;;
789;SDS011;378;48.844;9.156;2023-11-21T06:29:44;2.65;;;1.25;;
789;SDS011;378;48.844;9.156;2023-11-21T06:32:12;4.70;;;1.25;;
789;SDS011;378;48.844;9.156;2023-11-21T06:34:41;3.35;;;1.13;;
789;SDS011;378;48.844;9.156;2023-11-21T06:37:08;5.28;;;1.30;;
789;SDS011;378;48.844;9.156;2023-11-21T06:39:37;2.72;;;1.00;;
789;SDS011;378;48.844;9.156;2023-11-21T06:42:04;2.88;;;1.38;;
789;SDS011;378;48.844;9.156;2023-11-21T06:44:31;4.35;;;1.15;;
789;SDS011;378;48.844;9.156;2023-11-21T06:46:58;2.13;;;1.05;;
789;SDS011;378;48.844;9.156;2023-11-21T06:49:25;3.80;;;1.45;;
789;SDS011;378;48.844;9.156;2023-11-21T06:51:52;1.83;;;1.33;;
789;SDS011;378;48.844;9.156;2023-11-21T06:54:20;1.75;;;1.10;;
789;SDS011;378;48.844;9.156;2023-11-21T06:56:49;3.00;;;1.35;;
789;SDS011;378;48.844;9.156;2023-11-21T06:59:16;2.38;;;1.30;;
789;SDS011;378;48.844;9.156;2023-11-21T07:01:45;3.67;;;1.40;;
789;SDS011;378;48.844;9.156;2023-11-21T07:04:12;8.13;;;1.63;;
789;SDS011;378;48.844;9.156;2023-11-21T07:06:39;3.25;;;1.85;;
789;SDS011;378;48.844;9.156;2023-11-21T07:09:06;2.17;;;1.40;;
789;SDS011;378;48.844;9.156;2023-11-21T07:11:33;3.13;;;1.42;;
789;SDS011;378;48.844;9.156;2023-11-21T07:14:02;3.58;;;1.73;;
789;SDS011;378;48.844;9.156;2023-11-21T07:16:37;6.95;;;1.23;;
789;SDS011;378;48.844;9.156;2023-11-21T07:19:08;4.40;;;1.77;;
789;SDS011;378;48.844;9.156;2023-11-21T07:21:35;4.72;;;1.98;;
789;SDS011;378;48.844;9.156;2023-11-21T07:24:10;3.22;;;1.77;;
789;SDS011;378;48.844;9.156;2023-11-21T07:26:37;2.88;;;2.00;;
789;SDS011;378;48.844;9.156;2023-11-21T07:29:06;3.78;;;1.80;;
789;SDS011;378;48.844;9.156;2023-11-21T07:31:34;4.75;;;2.40;;
789;SDS011;378;48.844;9.156;2023-11-21T07:34:01;3.78;;;2.10;;
789;SDS011;378;48.844;9.156;2023-11-21T07:36:27;3.47;;;2.40;;
789;SDS011;378;48.844;9.156;2023-11-21T07:38:54;7.95;;;3.22;;
789;SDS011;378;48.844;9.156;2023-11-21T07:41:21;4.90;;;3.10;;
789;SDS011;378;48.844;9.156;2023-11-21T07:43:48;6.63;;;3.00;;
789;SDS011;378;48.844;9.156;2023-11-21T07:46:16;6.72;;;2.92;;
789;SDS011;378;48.844;9.156;2023-11-21T07:48:44;4.35;;;2.50;;
789;SDS011;378;48.844;9.156;2023-11-21T07:51:11;4.88;;;2.60;;
789;SDS011;378;48.844;9.156;2023-11-21T07:53:39;5.18;;;2.30;;
789;SDS011;378;48.844;9.156;2023-11-21T07:56:06;3.92;;;2.08;;
789;SDS011;378;48.844;9.156;2023-11-21T07:58:34;3.53;;;2.10;;
789;SDS011;378;48.844;9.156;2023-11-21T08:01:01;5.10;;;2.00;;
789;SDS011;378;48.844;9.156;2023-11-21T08:03:30;3.55;;;2.42;;
789;SDS011;378;48.844;9.156;2023-11-21T08:05:57;5.65;;;2.60;;
789;SDS011;378;48.844;9.156;2023-11-21T08:08:25;4.65;;;2.00;;
789;SDS011;378;48.844;9.156;2023-11-21T08:10:52;5.35;;;2.10;;
789;SDS011;378;48.844;9.156;2023-11-21T08:13:22;3.25;;;1.90;;
789;SDS011;378;48.844;9.156;2023-11-21T08:15:49;3.78;;;1.83;;
789;SDS011;378;48.844;9.156;2023-11-21T08:18:16;2.90;;;1.67;;
789;SDS011;378;48.844;9.156;2023-11-21T08:20:45;3.83;;;1.83;;
789;SDS011;378;48.844;9.156;2023-11-21T08:23:13;2.75;;;1.48;;
789;SDS011;378;48.844;9.156;2023-11-21T08:25:42;4.90;;;1.90;;
789;SDS011;378;48.844;9.156;2023-11-21T08:28:09;3.55;;;1.92;;
789;SDS011;378;48.844;9.156;2023-11-21T08:30:36;5.65;;;1.95;;
789;SDS011;378;48.844;9.156;2023-11-21T08:33:03;7.80;;;2.00;;
789;SDS011;378;48.844;9.156;2023-11-21T08:35:30;2.28;;;1.67;;
789;SDS011;378;48.844;9.156;2023-11-21T08:37:59;4.30;;;2.20;;
789;SDS011;378;48.844;9.156;2023-11-21T08:40:25;4.57;;;2.05;;
789;SDS011;378;48.844;9.156;2023-11-21T08:42:52;3.65;;;2.15;;
789;SDS011;378;48.844;9.156;2023-11-21T08:45:20;2.30;;;1.90;;
789;SDS011;378;48.844;9.156;2023-11-21T08:47:49;3.28;;;2.17;;
789;SDS011;378;48.844;9.156;2023-11-21T08:50:16;3.17;;;2.15;;
789;SDS011;378;48.844;9.156;2023-11-21T08:52:44;5.88;;;2.05;;
789;SDS011;378;48.844;9.156;2023-11-21T08:55:13;8.05;;;1.63;;
789;SDS011;378;48.844;9.156;2023-11-21T08:57:41;4.38;;;1.55;;
789;SDS011;378;48.844;9.156;2023-11-21T09:00:10;4.45;;;1.45;;
789;SDS011;378;48.844;9.156;2023-11-21T09:02:38;4.50;;;1.50;;
789;SDS011;378;48.844;9.156;2023-11-21T09:05:07;4.22;;;1.80;;
789;SDS011;378;48.844;9.156;2023-11-21T09:07:35;3.22;;;1.33;;
789;SDS011;378;48.844;9.156;2023-11-21T09:10:02;4.43;;;1.70;;
789;SDS011;378;48.844;9.156;2023-11-21T09:12:32;2.70;;;1.70;;
789;SDS011;378;48.844;9.156;2023-11-21T09:15:00;1.90;;;1.40;;
789;SDS011;378;48.844;9.156;2023-11-21T09:17:27;3.95;;;1.98;;
789;SDS011;378;48.844;9.156;2023-11-21T09:19:53;3.38;;;1.65;;
789;SDS011;378;48.844;9.156;2023-11-21T09:22:22;2.20;;;1.13;;
789;SDS011;378;48.844;9.156;2023-11-21T09:24:50;3.88;;;1.58;;
789;SDS011;378;48.844;9.156;2023-11-21T09:27:17;2.47;;;1.48;;
789;SDS011;378;48.844;9.156;2023-11-21T09:29:46;4.22;;;1.30;;
789;SDS011;378;48.844;9.156;2023-11-21T09:32:14;2.63;;;1.60;;
789;SDS011;378;48.844;9.156;2023-11-21T09:34:43;2.42;;;1.20;;
789;SDS011;378;48.844;9.156;2023-11-21T09:37:10;3.40;;;1.40;;
789;SDS011;378;48.844;9.156;2023-11-21T09:39:38;2.67;;;1.40;;
789;SDS011;378;48.844;9.156;2023-11-21T09:42:08;2.00;;;1.30;;
789;SDS011;378;48.844;9.156;2023-11-21T09:44:44;2.45;;;1.20;;
789;SDS011;378;48.844;9.156;2023-11-21T09:47:18;1.52;;;1.10;;
789;SDS011;378;48.844;9.156;2023-11-21T09:49:46;1.70;;;1.20;;
789;SDS011;378;48.844;9.156;2023-11-21T09:52:18;2.50;;;1.30;;
789;SDS011;378;48.844;9.156;2023-11-21T09:54:51;2.03;;;1.33;;
789;SDS011;378;48.844;9.156;2023-11-21T09:57:37;4.65;;;1.20;;
789;SDS011;378;48.844;9.156;2023-11-21T10:00:07;2.13;;;1.02;;
789;SDS011;378;48.844;9.156;2023-11-21T10:02:37;2.15;;;1.25;;
789;SDS011;378;48.844;9.156;2023-11-21T10:05:06;1.65;;;1.27;;
789;SDS011;378;48.844;9.156;2023-11-21T10:07:34;2.25;;;1.27;;
789;SDS011;378;48.844;9.156;2023-11-21T10:10:02;4.60;;;1.60;;
789;SDS011;378;48.844;9.156;2023-11-21T10:12:29;3.83;;;1.50;;
789;SDS011;378;48.844;9.156;2023-11-21T10:14:58;2.40;;;1.67;;
789;SDS011;378;48.844;9.156;2023-11-21T10:17:28;2.42;;;1.33;;
789;SDS011;378;48.844;9.156;2023-11-21T10:20:02;2.65;;;1.10;;
789;SDS011;378;48.844;9.156;2023-11-21T10:22:36;1.67;;;0.90;;
789;SDS011;378;48.844;9.156;2023-11-21T10:25:06;1.02;;;0.90;;
789;SDS011;378;48.844;9.156;2023-11-21T10:27:33;1.95;;;0.90;;
789;SDS011;378;48.844;9.156;2023-11-21T10:30:00;4.40;;;1.45;;
789;SDS011;378;48.844;9.156;2023-11-21T10:32:29;1.30;;;0.80;;
789;SDS011;378;48.844;9.156;2023-11-21T10:34:57;1.77;;;1.00;;
789;SDS011;378;48.844;9.156;2023-11-21T10:37:27;0.85;;;0.80;;
789;SDS011;378;48.844;9.156;2023-11-21T10:39:57;0.70;;;0.70;;
789;SDS011;378;48.844;9.156;2023-11-21T10:42:24;2.70;;;0.90;;
789;SDS011;378;48.844;9.156;2023-11-21T10:44:52;2.28;;;1.10;;
789;SDS011;378;48.844;9.156;2023-11-21T10:47:19;1.08;;;0.70;;
789;SDS011;378;48.844;9.156;2023-11-21T10:49:49;2.90;;;0.98;;
789;SDS011;378;48.844;9.156;2023-11-21T10:52:18;0.82;;;0.68;;
789;SDS011;378;48.844;9.156;2023-11-21T10:54:46;2.65;;;0.80;;
789;SDS011;378;48.844;9.156;2023-11-21T10:57:13;2.75;;;0.90;;
789;SDS011;378;48.844;9.156;2023-11-21T10:59:45;1.20;;;1.00;;
789;SDS011;378;48.844;9.156;2023-11-21T11:02:18;2.42;;;1.20;;
789;SDS011;378;48.844;9.156;2023-11-21T11:04:51;2.60;;;1.30;;
789;SDS011;378;48.844;9.156;2023-11-21T11:07:20;2.08;;;1.13;;
789;SDS011;378;48.844;9.156;2023-11-21T11:09:52;2.03;;;1.35;;
789;SDS011;378;48.844;9.156;2023-11-21T11:12:19;1.83;;;1.20;;
789;SDS011;378;48.844;9.156;2023-11-21T11:14:46;3.30;;;1.55;;
789;SDS011;378;48.844;9.156;2023-11-21T11:17:14;2.45;;;1.40;;
789;SDS011;378;48.844;9.156;2023-11-21T11:19:41;2.33;;;1.20;;
789;SDS011;378;48.844;9.156;2023-11-21T11:22:13;3.13;;;1.70;;
789;SDS011;378;48.844;9.156;2023-11-21T11:24:58;1.67;;;1.42;;
789;SDS011;378;48.844;9.156;2023-11-21T11:27:40;1.52;;;1.40;;
789;SDS011;378;48.844;9.156;2023-11-21T11:30:16;2.72;;;1.63;;
789;SDS011;378;48.844;9.156;2023-11-21T11:32:55;2.92;;;2.00;;
789;SDS011;378;48.844;9.156;2023-11-21T11:35:33;1.70;;;1.40;;
789;SDS011;378;48.844;9.156;2023-11-21T11:38:06;3.97;;;2.00;;
789;SDS011;378;48.844;9.156;2023-11-21T11:40:39;2.90;;;1.65;;
789;SDS011;378;48.844;9.156;2023-11-21T11:43:07;4.72;;;1.73;;
789;SDS011;378;48.844;9.156;2023-11-21T11:45:34;2.33;;;1.80;;
789;SDS011;378;48.844;9.156;2023-11-21T11:48:06;1.73;;;1.60;;
789;SDS011;378;48.844;9.156;2023-11-21T11:50:33;2.65;;;1.80;;
789;SDS011;378;48.844;9.156;2023-11-21T11:53:13;2.53;;;1.92;;
789;SDS011;378;48.844;9.156;2023-11-21T11:55:40;2.85;;;1.83;;
789;SDS011;378;48.844;9.156;2023-11-21T11:58:07;2.28;;;1.58;;
789;SDS011;378;48.844;9.156;2023-11-21T12:00:35;3.08;;;1.98;;
789;SDS011;378;48.844;9.156;2023-11-21T12:03:05;2.13;;;1.63;;
789;SDS011;378;48.844;9.156;2023-11-21T12:05:33;2.78;;;1.88;;
789;SDS011;378;48.844;9.156;2023-11-21T12:08:04;1.80;;;1.55;;
789;SDS011;378;48.844;9.156;2023-11-21T12:10:34;2.15;;;1.95;;
789;SDS011;378;48.844;9.156;2023-11-21T12:13:05;2.42;;;1.80;;
789;SDS011;378;48.844;9.156;2023-11-21T12:15:48;2.40;;;2.15;;
789;SDS011;378;48.844;9.156;2023-11-21T12:18:15;2.30;;;2.08;;
789;SDS011;378;48.844;9.156;2023-11-21T12:20:42;2.40;;;1.85;;
789;SDS011;378;48.844;9.156;2023-11-21T12:23:12;1.65;;;1.50;;
789;SDS011;378;48.844;9.156;2023-11-21T12:25:41;1.50;;;1.40;;
789;SDS011;378;48.844;9.156;2023-11-21T12:28:09;2.63;;;1.40;;
789;SDS011;378;48.844;9.156;2023-11-21T12:30:42;1.90;;;1.38;;
789;SDS011;378;48.844;9.156;2023-11-21T12:33:10;1.40;;;1.30;;
789;SDS011;378;48.844;9.156;2023-11-21T12:35:42;3.55;;;1.70;;
789;SDS011;378;48.844;9.156;2023-11-21T12:38:13;2.30;;;1.40;;
789;SDS011;378;48.844;9.156;2023-11-21T12:40:43;1.50;;;1.35;;
789;SDS011;378;48.844;9.156;2023-11-21T12:43:10;2.00;;;1.58;;
789;SDS011;378;48.844;9.156;2023-11-21T12:45:38;2.35;;;1.90;;
789;SDS011;378;48.844;9.156;2023-11-21T12:48:07;3.40;;;1.70;;
789;SDS011;378;48.844;9.156;2023-11-21T12:50:36;1.98;;;1.58;;
789;SDS011;378;48.844;9.156;2023-11-21T12:53:07;3.15;;;2.00;;
789;SDS011;378;48.844;9.156;2023-11-21T12:55:37;2.42;;;1.90;;
789;SDS011;378;48.844;9.156;2023-11-21T12:58:07;3.38;;;1.67;;
789;SDS011;378;48.844;9.156;2023-11-21T13:00:37;2.08;;;1.35;;
789;SDS011;378;48.844;9.156;2023-11-21T13:03:08;1.25;;;1.00;;
789;SDS011;378;48.844;9.156;2023-11-21T13:05:38;2.03;;;0.98;;
789;SDS011;378;48.844;9.156;2023-11-21T13:08:07;2.15;;;1.10;;
789;SDS011;378;48.844;9.156;2023-11-21T13:10:38;2.30;;;0.98;;
789;SDS011;378;48.844;9.156;2023-11-21T13:13:10;1.15;;;1.00;;
789;SDS011;378;48.844;9.156;2023-11-21T13:15:46;2.85;;;1.00;;
789;SDS011;378;48.844;9.156;2023-11-21T13:18:14;2.05;;;1.17;;
789;SDS011;378;48.844;9.156;2023-11-21T13:20:42;3.72;;;1.52;;
789;SDS011;378;48.844;9.156;2023-11-21T13:23:11;2.45;;;1.30;;
789;SDS011;378;48.844;9.156;2023-11-21T13:25:41;2.60;;;1.20;;
789;SDS011;378;48.844;9.156;2023-11-21T13:28:11;1.63;;;1.30;;
789;SDS011;378;48.844;9.156;2023-11-21T13:30:40;1.30;;;1.20;;
789;SDS011;378;48.844;9.156;2023-11-21T13:33:09;4.00;;;1.60;;
789;SDS011;378;48.844;9.156;2023-11-21T13:35:43;4.47;;;1.77;;
789;SDS011;378;48.844;9.156;2023-11-21T13:38:14;6.05;;;1.70;;
789;SDS011;378;48.844;9.156;2023-11-21T13:40:46;2.60;;;1.80;;
789;SDS011;378;48.844;9.156;2023-11-21T13:43:16;1.80;;;1.60;;
789;SDS011;378;48.844;9.156;2023-11-21T13:45:45;2.90;;;1.73;;
789;SDS011;378;48.844;9.156;2023-11-21T13:48:15;3.35;;;2.15;;
789;SDS011;378;48.844;9.156;2023-11-21T13:50:50;4.55;;;2.40;;
789;SDS011;378;48.844;9.156;2023-11-21T13:53:25;4.78;;;2.17;;
789;SDS011;378;48.844;9.156;2023-11-21T13:55:52;3.20;;;1.65;;
789;SDS011;378;48.844;9.156;2023-11-21T13:58:24;4.05;;;1.98;;
789;SDS011;378;48.844;9.156;2023-11-21T14:01:04;4.25;;;1.70;;
789;SDS011;378;48.844;9.156;2023-11-21T14:03:38;5.72;;;2.13;;
789;SDS011;378;48.844;9.156;2023-11-21T14:06:16;3.58;;;2.28;;
789;SDS011;378;48.844;9.156;2023-11-21T14:08:49;3.22;;;1.77;;
789;SDS011;378;48.844;9.156;2023-11-21T14:11:16;2.33;;;1.58;;
789;SDS011;378;48.844;9.156;2023-11-21T14:13:46;2.70;;;2.05;;
789;SDS011;378;48.844;9.156;2023-11-21T14:16:13;5.95;;;2.00;;
789;SDS011;378;48.844;9.156;2023-11-21T14:18:41;3.10;;;2.03;;
789;SDS011;378;48.844;9.156;2023-11-21T14:21:17;4.35;;;2.20;;
789;SDS011;378;48.844;9.156;2023-11-21T14:23:44;3.88;;;1.90;;
789;SDS011;378;48.844;9.156;2023-11-21T14:26:11;4.03;;;1.85;;
789;SDS011;378;48.844;9.156;2023-11-21T14:28:39;7.00;;;2.05;;
789;SDS011;378;48.844;9.156;2023-11-21T14:31:10;2.63;;;2.00;;
789;SDS011;378;48.844;9.156;2023-11-21T14:33:40;2.55;;;1.73;;
789;SDS011;378;48.844;9.156;2023-11-21T14:36:07;3.00;;;2.30;;
789;SDS011;378;48.844;9.156;2023-11-21T14:38:35;7.55;;;3.85;;
789;SDS011;378;48.844;9.156;2023-11-21T14:41:02;10.45;;;5.40;;
789;SDS011;378;48.844;9.156;2023-11-21T14:43:32;8.10;;;4.60;;
789;SDS011;378;48.844;9.156;2023-11-21T14:46:00;11.23;;;4.72;;
789;SDS011;378;48.844;9.156;2023-11-21T14:48:29;10.20;;;4.97;;
789;SDS011;378;48.844;9.156;2023-11-21T14:51:07;8.02;;;4.38;;
789;SDS011;378;48.844;9.156;2023-11-21T14:53:52;6.78;;;3.30;;
789;SDS011;378;48.844;9.156;2023-11-21T14:56:19;4.68;;;2.80;;
789;SDS011;378;48.844;9.156;2023-11-21T14:58:51;4.93;;;2.83;;
789;SDS011;378;48.844;9.156;2023-11-21T15:01:20;6.47;;;2.95;;
789;SDS011;378;48.844;9.156;2023-11-21T15:04:01;4.63;;;3.25;;
789;SDS011;378;48.844;9.156;2023-11-21T15:06:31;7.53;;;4.40;;
789;SDS011;378;48.844;9.156;2023-11-21T15:08:57;9.82;;;3.95;;
789;SDS011;378;48.844;9.156;2023-11-21T15:11:42;5.97;;;3.70;;
789;SDS011;378;48.844;9.156;2023-11-21T15:14:09;6.53;;;3.55;;
789;SDS011;378;48.844;9.156;2023-11-21T15:16:38;9.38;;;3.70;;
789;SDS011;378;48.844;9.156;2023-11-21T15:19:09;5.90;;;2.83;;
789;SDS011;378;48.844;9.156;2023-11-21T15:21:37;6.10;;;3.30;;
789;SDS011;378;48.844;9.156;2023-11-21T15:24:04;4.70;;;3.33;;
789;SDS011;378;48.844;9.156;2023-11-21T15:26:32;5.07;;;3.40;;
789;SDS011;378;48.844;9.156;2023-11-21T15:28:59;4.13;;;3.17;;
789;SDS011;378;48.844;9.156;2023-11-21T15:31:26;6.05;;;3.15;;
789;SDS011;378;48.844;9.156;2023-11-21T15:33:53;8.80;;;3.75;;
789;SDS011;378;48.844;9.156;2023-11-21T15:36:25;9.07;;;3.42;;
789;SDS011;378;48.844;9.156;2023-11-21T15:38:52;7.05;;;3.15;;
789;SDS011;378;48.844;9.156;2023-11-21T15:41:19;4.93;;;3.03;;
789;SDS011;378;48.844;9.156;2023-11-21T15:43:46;4.13;;;2.80;;
789;SDS011;378;48.844;9.156;2023-11-21T15:46:15;6.05;;;3.30;;
789;SDS011;378;48.844;9.156;2023-11-21T15:48:42;5.53;;;3.28;;
789;SDS011;378;48.844;9.156;2023-11-21T15:51:15;6.22;;;3.47;;
789;SDS011;378;48.844;9.156;2023-11-21T15:53:43;7.28;;;3.58;;